Time;durP1;ratioP1;P1;durP2;ratioP2;P2;SDS_P1;SDS_P2;PMS_P1;PMS_P2;Temp;Humidity;BMP_temperature;BMP_pressure;BME280_temperature;BME280_humidity;BME280_pressure;Samples;Min_cycle;Max_cycle;Signal;HPM_P1;HPM_P2
2023/03/10 00:00:48;;;;;;;28.17;17.30;;;1.50;99.90;;;;;;5042516;28;20122;-48
2023/03/10 00:03:13;;;;;;;27.63;16.40;;;1.50;99.90;;;;;;5042080;28;20507;-46
2023/03/10 00:05:39;;;;;;;25.57;16.73;;;1.50;99.90;;;;;;5039125;28;20033;-48
2023/03/10 00:08:05;;;;;;;25.90;16.63;;;1.50;99.90;;;;;;5038759;28;20283;-46
2023/03/10 00:10:31;;;;;;;25.80;15.75;;;1.50;99.90;;;;;;5041130;28;20041;-47
2023/03/10 00:12:57;;;;;;;24.07;15.97;;;1.50;99.90;;;;;;5035749;28;20108;-48
2023/03/10 00:15:22;;;;;;;24.43;15.33;;;1.50;99.90;;;;;;5036082;28;20094;-46
2023/03/10 00:17:54;;;;;;;27.40;17.05;;;1.50;99.90;;;;;;5034627;28;20051;-48
2023/03/10 00:20:20;;;;;;;28.67;15.70;;;1.50;99.90;;;;;;5035085;28;20440;-48
2023/03/10 00:22:46;;;;;;;25.02;16.00;;;1.50;99.90;;;;;;5044319;28;20364;-48
2023/03/10 00:25:11;;;;;;;28.70;16.70;;;1.50;99.90;;;;;;5043111;28;20037;-46
2023/03/10 00:27:37;;;;;;;24.70;15.00;;;1.50;99.90;;;;;;5039778;28;20366;-47
2023/03/10 00:30:04;;;;;;;26.08;16.77;;;1.50;99.90;;;;;;5032772;28;20057;-47
2023/03/10 00:32:29;;;;;;;24.88;16.05;;;1.50;99.90;;;;;;5031670;28;20445;-46
2023/03/10 00:34:55;;;;;;;23.77;15.33;;;1.50;99.90;;;;;;5043085;28;20112;-46
2023/03/10 00:37:21;;;;;;;22.85;15.10;;;1.50;99.90;;;;;;5044425;28;20147;-47
2023/03/10 00:39:50;;;;;;;25.80;15.20;;;1.50;99.90;;;;;;5040772;28;20126;-46
2023/03/10 00:42:16;;;;;;;21.13;13.98;;;1.50;99.90;;;;;;5031095;28;20132;-46
2023/03/10 00:44:42;;;;;;;21.60;13.60;;;1.50;99.90;;;;;;5030876;28;20108;-47
2023/03/10 00:47:07;;;;;;;20.27;14.17;;;1.50;99.90;;;;;;5033493;28;20604;-46
2023/03/10 00:49:33;;;;;;;20.00;13.63;;;1.50;99.90;;;;;;5031568;28;20113;-47
2023/03/10 00:51:59;;;;;;;18.70;13.33;;;1.50;99.90;;;;;;5030180;28;20038;-47
2023/03/10 00:54:24;;;;;;;20.27;14.03;;;1.50;99.90;;;;;;5034352;28;20041;-47
2023/03/10 00:56:50;;;;;;;20.70;13.10;;;1.60;99.90;;;;;;5032394;28;20157;-47
2023/03/10 00:59:15;;;;;;;19.47;13.50;;;1.60;99.90;;;;;;5024571;28;20662;-46
2023/03/10 01:01:41;;;;;;;18.43;13.50;;;1.60;99.90;;;;;;5032330;28;20045;-47
2023/03/10 01:04:13;;;;;;;16.75;12.18;;;1.60;99.90;;;;;;5031927;28;20360;-47
2023/03/10 01:06:39;;;;;;;19.80;14.05;;;1.60;99.90;;;;;;5029126;28;20049;-47
2023/03/10 01:09:05;;;;;;;19.52;12.20;;;1.60;99.90;;;;;;5031612;28;20079;-48
2023/03/10 01:11:31;;;;;;;17.35;12.20;;;1.60;99.90;;;;;;5046169;28;20033;-47
2023/03/10 01:14:00;;;;;;;20.80;12.98;;;1.60;99.90;;;;;;5044360;28;20025;-46
2023/03/10 01:16:27;;;;;;;16.65;12.18;;;1.60;99.90;;;;;;5038717;28;20041;-47
2023/03/10 01:18:52;;;;;;;;;;;1.60;99.90;;;;;;5029916;28;20034;-47
2023/03/10 01:21:32;;;;;;;17.38;11.60;;;1.60;99.90;;;;;;5047324;28;19921;-47
2023/03/10 01:23:59;;;;;;;17.25;11.23;;;1.60;99.90;;;;;;5034289;28;20506;-46
2023/03/10 01:26:25;;;;;;;17.50;12.13;;;1.60;99.90;;;;;;5030045;28;20042;-46
2023/03/10 01:28:50;;;;;;;16.30;11.07;;;1.60;99.90;;;;;;5040943;28;20101;-47
2023/03/10 01:31:17;;;;;;;16.83;12.35;;;1.60;99.90;;;;;;5032953;28;20541;-48
2023/03/10 01:33:44;;;;;;;16.65;11.70;;;1.60;99.90;;;;;;5039049;28;20037;-47
2023/03/10 01:36:11;;;;;;;17.08;11.75;;;1.70;99.90;;;;;;5037281;28;20037;-49
2023/03/10 01:38:38;;;;;;;16.27;11.88;;;1.70;99.90;;;;;;5041242;28;20111;-48
2023/03/10 01:41:04;;;;;;;15.75;10.93;;;1.70;99.90;;;;;;5047252;28;20032;-46
2023/03/10 01:43:33;;;;;;;17.90;11.68;;;1.70;99.90;;;;;;5048582;28;20080;-48
2023/03/10 01:46:20;;;;;;;16.77;12.10;;;1.70;99.90;;;;;;5038281;28;20052;-47
2023/03/10 01:48:45;;;;;;;17.38;11.90;;;1.80;99.90;;;;;;5039175;28;20064;-46
2023/03/10 01:51:11;;;;;;;15.73;11.30;;;1.70;99.90;;;;;;5045704;28;20053;-46
2023/03/10 01:53:37;;;;;;;18.20;11.73;;;1.70;99.90;;;;;;5044058;28;20033;-46
2023/03/10 01:56:04;;;;;;;16.70;11.43;;;1.70;99.90;;;;;;5033954;28;20116;-48
2023/03/10 01:58:44;;;;;;;14.90;10.77;;;1.70;99.90;;;;;;5034161;28;20801;-46
2023/03/10 02:01:12;;;;;;;15.52;10.55;;;1.70;99.90;;;;;;5039986;28;20179;-47
2023/03/10 02:03:43;;;;;;;15.25;10.18;;;1.70;99.90;;;;;;5035551;28;20125;-46
2023/03/10 02:06:12;;;;;;;14.90;10.80;;;1.70;99.90;;;;;;5035003;28;20065;-46
2023/03/10 02:08:43;;;;;;;14.68;10.25;;;1.70;99.90;;;;;;5032382;28;20033;-47
2023/03/10 02:11:10;;;;;;;14.23;10.35;;;1.70;99.90;;;;;;5032084;28;20037;-46
2023/03/10 02:13:35;;;;;;;16.45;9.80;;;1.70;99.90;;;;;;5034099;28;20033;-46
2023/03/10 02:16:01;;;;;;;15.30;11.23;;;1.70;99.90;;;;;;5034150;28;20475;-46
2023/03/10 02:18:29;;;;;;;13.67;10.50;;;1.70;99.90;;;;;;5032676;28;20042;-47
2023/03/10 02:21:04;;;;;;;16.77;10.00;;;1.70;99.90;;;;;;5038878;28;20286;-48
2023/03/10 02:23:41;;;;;;;13.90;9.18;;;1.70;99.90;;;;;;5034049;28;20076;-48
2023/03/10 02:26:13;;;;;;;14.05;9.60;;;1.70;99.90;;;;;;5034328;28;20042;-46
2023/03/10 02:28:39;;;;;;;14.20;10.10;;;1.80;99.90;;;;;;5044530;28;20044;-46
2023/03/10 02:31:05;;;;;;;13.27;9.63;;;1.80;99.90;;;;;;5044123;28;20033;-46
2023/03/10 02:33:32;;;;;;;13.95;10.55;;;1.70;99.90;;;;;;5043510;28;20033;-45
2023/03/10 02:36:01;;;;;;;;;;;1.70;99.90;;;;;;5047725;28;20098;-46
2023/03/10 02:38:27;;;;;;;14.48;10.45;;;1.70;99.90;;;;;;5043885;28;20282;-46
2023/03/10 02:40:54;;;;;;;11.43;8.50;;;1.70;99.90;;;;;;5049471;28;20044;-47
2023/03/10 02:43:26;;;;;;;14.30;9.23;;;1.70;99.90;;;;;;5040653;28;20044;-46
2023/03/10 02:45:58;;;;;;;14.23;9.75;;;1.70;99.90;;;;;;5033253;28;20042;-46
2023/03/10 02:48:36;;;;;;;14.50;9.75;;;1.70;99.90;;;;;;5046416;28;20056;-47
2023/03/10 02:51:05;;;;;;;13.88;10.27;;;1.70;99.90;;;;;;5041548;28;20041;-46
2023/03/10 02:53:31;;;;;;;15.80;11.30;;;1.70;99.90;;;;;;5044315;28;20047;-47
2023/03/10 02:55:57;;;;;;;13.40;10.43;;;1.70;99.90;;;;;;5047528;28;20033;-47
2023/03/10 02:58:26;;;;;;;15.40;10.98;;;1.70;99.90;;;;;;5044824;28;20045;-47
2023/03/10 03:00:52;;;;;;;13.93;10.43;;;1.70;99.90;;;;;;5036967;28;20040;-47
2023/03/10 03:03:19;;;;;;;14.55;11.07;;;1.70;99.90;;;;;;5044709;28;20554;-47
2023/03/10 03:05:45;;;;;;;14.85;11.02;;;1.70;99.90;;;;;;5046120;28;20033;-46
2023/03/10 03:08:11;;;;;;;18.58;11.05;;;1.70;99.90;;;;;;5041761;28;20142;-45
2023/03/10 03:10:38;;;;;;;14.13;11.25;;;1.70;99.90;;;;;;5037879;28;20059;-45
2023/03/10 03:13:04;;;;;;;19.38;11.63;;;1.70;99.90;;;;;;5046091;28;20088;-46
2023/03/10 03:15:30;;;;;;;;;;;1.70;99.90;;;;;;5046577;28;20490;-48
2023/03/10 03:17:59;;;;;;;15.15;11.15;;;1.70;99.90;;;;;;5031712;28;19921;-47
2023/03/10 03:20:25;;;;;;;14.10;9.27;;;1.70;99.90;;;;;;5031839;28;20506;-48
2023/03/10 03:22:51;;;;;;;15.68;9.38;;;1.70;99.90;;;;;;5034042;28;20099;-48
2023/03/10 03:25:19;;;;;;;13.43;9.82;;;1.70;99.90;;;;;;5032091;28;20446;-46
2023/03/10 03:27:45;;;;;;;14.88;10.95;;;1.70;99.90;;;;;;5034712;28;20045;-47
2023/03/10 03:30:20;;;;;;;15.10;10.57;;;1.60;99.90;;;;;;5045713;28;20045;-47
2023/03/10 03:32:46;;;;;;;12.73;9.38;;;1.70;99.90;;;;;;5044437;28;20044;-47
2023/03/10 03:35:23;;;;;;;12.15;9.40;;;1.70;99.90;;;;;;5044098;28;20487;-46
2023/03/10 03:37:49;;;;;;;12.60;9.35;;;1.70;99.90;;;;;;5042665;28;20083;-47
2023/03/10 03:40:15;;;;;;;11.70;8.68;;;1.70;99.90;;;;;;5045279;28;20107;-47
2023/03/10 03:42:47;;;;;;;11.95;8.88;;;1.70;99.90;;;;;;5039261;28;20041;-47
2023/03/10 03:45:15;;;;;;;13.00;9.43;;;1.70;99.90;;;;;;5039692;28;20084;-46
2023/03/10 03:47:42;;;;;;;12.98;9.45;;;1.70;99.90;;;;;;5032706;28;20570;-47
2023/03/10 03:50:11;;;;;;;12.43;9.15;;;1.70;99.90;;;;;;5031063;28;20037;-46
2023/03/10 03:52:37;;;;;;;13.27;9.43;;;1.70;99.90;;;;;;5045879;28;20037;-47
2023/03/10 03:55:03;;;;;;;13.02;9.98;;;1.60;99.90;;;;;;5043779;28;20033;-46
2023/03/10 03:57:29;;;;;;;16.02;9.82;;;1.70;99.90;;;;;;5030962;28;20055;-47
2023/03/10 03:59:55;;;;;;;12.80;9.43;;;1.70;99.90;;;;;;5032227;28;20587;-46
2023/03/10 04:02:20;;;;;;;12.20;8.70;;;1.60;99.90;;;;;;5038895;28;20041;-48
2023/03/10 04:04:46;;;;;;;13.43;9.77;;;1.60;99.90;;;;;;5039062;28;20056;-45
2023/03/10 04:07:12;;;;;;;13.75;9.80;;;1.60;99.90;;;;;;5034078;28;20049;-47
2023/03/10 04:09:38;;;;;;;14.80;10.30;;;1.60;99.90;;;;;;5036438;28;20116;-46
2023/03/10 04:12:05;;;;;;;13.75;10.32;;;1.70;99.90;;;;;;5044339;28;20033;-47
2023/03/10 04:14:31;;;;;;;16.45;11.73;;;1.60;99.90;;;;;;5034347;28;20680;-46
2023/03/10 04:16:56;;;;;;;16.93;11.07;;;1.60;99.90;;;;;;5031954;28;20091;-45
2023/03/10 04:19:22;;;;;;;14.73;10.83;;;1.60;99.90;;;;;;5030894;28;20554;-46
2023/03/10 04:21:47;;;;;;;16.93;12.37;;;1.60;99.90;;;;;;5033110;28;20029;-46
2023/03/10 04:24:13;;;;;;;19.23;13.07;;;1.60;99.90;;;;;;5032100;28;20069;-45
2023/03/10 04:26:39;;;;;;;18.00;13.03;;;1.60;99.90;;;;;;5033575;28;20033;-46
2023/03/10 04:29:04;;;;;;;22.57;14.03;;;1.60;99.90;;;;;;5044656;28;20029;-46
2023/03/10 04:31:30;;;;;;;20.43;13.87;;;1.60;99.90;;;;;;5044762;28;20029;-46
2023/03/10 04:33:56;;;;;;;19.53;13.97;;;1.60;99.90;;;;;;5043962;28;20029;-47
2023/03/10 04:36:21;;;;;;;19.70;13.60;;;1.60;99.90;;;;;;5041799;28;20044;-46
2023/03/10 04:38:47;;;;;;;18.60;12.75;;;1.60;99.90;;;;;;5036743;28;20068;-47
2023/03/10 04:41:13;;;;;;;18.03;13.17;;;1.60;99.90;;;;;;5044566;28;20045;-46
2023/03/10 04:43:39;;;;;;;17.95;13.60;;;1.60;99.90;;;;;;5047266;28;20502;-46
2023/03/10 04:46:05;;;;;;;18.40;12.70;;;1.60;99.90;;;;;;5044575;28;20482;-46
2023/03/10 04:48:31;;;;;;;18.83;13.35;;;1.60;99.90;;;;;;5033447;28;20080;-48
2023/03/10 04:51:06;;;;;;;19.95;13.50;;;1.60;99.90;;;;;;5029281;28;20042;-48
2023/03/10 04:53:32;;;;;;;17.20;11.65;;;1.60;99.90;;;;;;5034119;28;20417;-46
2023/03/10 04:55:59;;;;;;;16.92;12.18;;;1.60;99.90;;;;;;5044017;28;20072;-46
2023/03/10 04:58:25;;;;;;;16.02;11.80;;;1.60;99.90;;;;;;5038172;28;20045;-47
2023/03/10 05:00:51;;;;;;;15.50;12.00;;;1.60;99.90;;;;;;5044828;28;20043;-45
2023/03/10 05:03:16;;;;;;;16.90;11.97;;;1.60;99.90;;;;;;5044233;28;20069;-47
2023/03/10 05:05:42;;;;;;;15.40;11.13;;;1.60;99.90;;;;;;5039798;28;20721;-48
2023/03/10 05:08:09;;;;;;;13.88;10.75;;;1.60;99.90;;;;;;5040507;28;20044;-48
2023/03/10 05:10:34;;;;;;;17.95;11.35;;;1.60;99.90;;;;;;5047535;28;20474;-47
2023/03/10 05:13:00;;;;;;;16.65;11.80;;;1.60;99.90;;;;;;5038932;28;20156;-48
2023/03/10 05:15:26;;;;;;;15.43;10.48;;;1.60;99.90;;;;;;5036155;28;20041;-47
2023/03/10 05:17:52;;;;;;;15.00;10.60;;;1.60;99.90;;;;;;5037159;28;20059;-47
2023/03/10 05:20:18;;;;;;;13.95;9.98;;;1.60;99.90;;;;;;5035654;28;20037;-46
2023/03/10 05:22:43;;;;;;;13.13;9.85;;;1.60;99.90;;;;;;5035927;28;20055;-46
2023/03/10 05:25:10;;;;;;;12.67;8.97;;;1.60;99.90;;;;;;5035052;28;20037;-48
2023/03/10 05:27:38;;;;;;;12.38;9.20;;;1.60;99.90;;;;;;5033633;28;20044;-47
2023/03/10 05:30:06;;;;;;;13.88;10.50;;;1.60;99.90;;;;;;5035254;28;20076;-47
2023/03/10 05:32:35;;;;;;;13.00;8.85;;;1.60;99.90;;;;;;5034230;28;20041;-47
2023/03/10 05:35:02;;;;;;;14.77;10.02;;;1.60;99.90;;;;;;5037634;28;20418;-48
2023/03/10 05:37:28;;;;;;;11.05;8.45;;;1.60;99.90;;;;;;5044523;28;20068;-47
2023/03/10 05:39:53;;;;;;;12.13;8.17;;;1.60;99.90;;;;;;5046260;28;20040;-46
2023/03/10 05:42:19;;;;;;;12.40;9.50;;;1.60;99.90;;;;;;5039700;28;20039;-47
2023/03/10 05:44:44;;;;;;;11.57;9.27;;;1.60;99.90;;;;;;5039361;28;20103;-46
2023/03/10 05:47:10;;;;;;;10.20;8.17;;;1.60;99.90;;;;;;5045334;28;20040;-46
2023/03/10 05:49:36;;;;;;;12.13;8.60;;;1.60;99.90;;;;;;5044532;28;20502;-48
2023/03/10 05:52:01;;;;;;;14.60;9.43;;;1.60;99.90;;;;;;5045711;28;20043;-47
2023/03/10 05:54:27;;;;;;;12.20;8.80;;;1.60;99.90;;;;;;5036083;28;20453;-47
2023/03/10 05:56:53;;;;;;;9.83;8.37;;;1.60;99.90;;;;;;5034573;28;20043;-48
2023/03/10 05:59:18;;;;;;;14.73;8.27;;;1.60;99.90;;;;;;5033360;28;20584;-48
2023/03/10 06:01:44;;;;;;;12.70;8.60;;;1.60;99.90;;;;;;5033226;28;20033;-47
2023/03/10 06:04:09;;;;;;;11.50;8.47;;;1.60;99.90;;;;;;5033398;28;20128;-46
2023/03/10 06:06:35;;;;;;;12.83;9.50;;;1.60;99.90;;;;;;5033168;28;20044;-46
2023/03/10 06:09:01;;;;;;;13.90;9.50;;;1.60;99.90;;;;;;5041561;28;20040;-47
2023/03/10 06:11:27;;;;;;;10.98;7.70;;;1.60;99.90;;;;;;5047099;28;20087;-46
2023/03/10 06:13:52;;;;;;;10.55;8.32;;;1.60;99.90;;;;;;5033858;28;20033;-48
2023/03/10 06:16:18;;;;;;;12.07;8.93;;;1.60;99.90;;;;;;5032706;28;20037;-46
2023/03/10 06:18:44;;;;;;;13.35;9.75;;;1.60;99.90;;;;;;5030803;28;20095;-47
2023/03/10 06:21:12;;;;;;;12.65;8.75;;;1.60;99.90;;;;;;5044290;28;20057;-46
2023/03/10 06:23:39;;;;;;;15.23;9.63;;;1.60;99.90;;;;;;5044570;28;20498;-46
2023/03/10 06:26:07;;;;;;;10.70;8.52;;;1.60;99.90;;;;;;5047679;28;20045;-46
2023/03/10 06:28:36;;;;;;;10.32;8.00;;;1.60;99.90;;;;;;5042567;28;20701;-46
2023/03/10 06:31:06;;;;;;;11.90;8.35;;;1.60;99.90;;;;;;5032351;28;20029;-48
2023/03/10 06:33:31;;;;;;;14.70;8.05;;;1.60;99.90;;;;;;5033087;28;20149;-48
2023/03/10 06:35:57;;;;;;;12.40;8.73;;;1.60;99.90;;;;;;5044974;28;20128;-46
2023/03/10 06:38:23;;;;;;;12.98;8.20;;;1.60;99.90;;;;;;5044912;28;20068;-46
2023/03/10 06:40:49;;;;;;;14.18;8.82;;;1.60;99.90;;;;;;5046482;28;20037;-46
2023/03/10 06:43:15;;;;;;;12.02;8.50;;;1.60;99.90;;;;;;5035964;28;20029;-48
2023/03/10 06:45:42;;;;;;;12.13;9.18;;;1.60;99.90;;;;;;5047301;28;20055;-47
2023/03/10 06:48:08;;;;;;;13.05;8.52;;;1.60;99.90;;;;;;5033694;28;20702;-46
2023/03/10 06:50:34;;;;;;;11.60;9.15;;;1.70;99.90;;;;;;5035371;28;20045;-46
2023/03/10 06:53:00;;;;;;;11.57;8.18;;;1.70;99.90;;;;;;5032097;28;20121;-47
2023/03/10 06:55:25;;;;;;;10.97;8.00;;;1.70;99.90;;;;;;5040530;28;20052;-47
2023/03/10 06:57:51;;;;;;;11.70;9.07;;;1.70;99.90;;;;;;5037751;28;20045;-48
2023/03/10 07:00:18;;;;;;;15.27;9.73;;;1.70;99.90;;;;;;5045269;28;20033;-45
2023/03/10 07:02:43;;;;;;;12.45;8.60;;;1.70;99.90;;;;;;5043506;28;20041;-48
2023/03/10 07:05:11;;;;;;;13.80;9.50;;;1.70;99.90;;;;;;5046972;28;20462;-46
2023/03/10 07:07:37;;;;;;;12.65;9.30;;;1.80;99.90;;;;;;5035062;28;20114;-46
2023/03/10 07:10:04;;;;;;;14.52;9.43;;;1.70;99.90;;;;;;5044084;28;20494;-47
2023/03/10 07:12:29;;;;;;;11.73;8.63;;;1.80;99.90;;;;;;5034882;28;20083;-49
2023/03/10 07:14:55;;;;;;;13.10;8.70;;;1.80;99.90;;;;;;5037457;28;20033;-46
2023/03/10 07:17:20;;;;;;;11.10;8.83;;;1.90;99.90;;;;;;5046797;28;20406;-48
2023/03/10 07:19:46;;;;;;;10.07;7.90;;;1.90;99.90;;;;;;5043053;28;20033;-48
2023/03/10 07:22:11;;;;;;;11.63;8.80;;;1.80;99.90;;;;;;5038220;28;20033;-46
2023/03/10 07:24:37;;;;;;;12.50;8.80;;;1.90;99.90;;;;;;5037163;28;20086;-47
2023/03/10 07:27:03;;;;;;;13.80;9.00;;;1.90;99.90;;;;;;5040091;28;20067;-47
2023/03/10 07:29:28;;;;;;;10.35;8.30;;;1.80;99.90;;;;;;5037061;28;20047;-46
2023/03/10 07:31:54;;;;;;;13.90;10.30;;;1.90;99.90;;;;;;5034693;28;20444;-48
2023/03/10 07:34:20;;;;;;;13.57;9.43;;;1.90;99.90;;;;;;5032353;28;20038;-46
2023/03/10 07:36:46;;;;;;;13.07;9.60;;;1.90;99.90;;;;;;5032926;28;20073;-47
2023/03/10 07:39:12;;;;;;;11.80;9.05;;;1.90;99.90;;;;;;5033042;28;20037;-46
2023/03/10 07:41:37;;;;;;;13.05;8.95;;;2.00;99.90;;;;;;5039040;28;20048;-48
2023/03/10 07:44:03;;;;;;;13.83;9.87;;;2.00;99.90;;;;;;5042848;28;20033;-46
2023/03/10 07:46:29;;;;;;;12.57;9.40;;;2.00;99.90;;;;;;5044981;28;20571;-46
2023/03/10 07:48:57;;;;;;;13.33;9.57;;;2.00;99.90;;;;;;5039161;28;20591;-46
2023/03/10 07:51:22;;;;;;;12.43;9.70;;;2.10;99.90;;;;;;5037911;28;20287;-47
2023/03/10 07:53:48;;;;;;;11.77;9.43;;;2.10;99.90;;;;;;5037816;28;20045;-47
2023/03/10 07:56:17;;;;;;;13.80;9.63;;;2.10;99.90;;;;;;5043310;28;20047;-47
2023/03/10 07:58:42;;;;;;;15.60;10.48;;;2.00;99.90;;;;;;5040755;28;20033;-47
2023/03/10 08:01:17;;;;;;;15.57;11.40;;;2.10;99.90;;;;;;5043163;28;20387;-51
2023/03/10 08:03:43;;;;;;;15.90;11.05;;;2.10;99.90;;;;;;5042114;28;20095;-47
2023/03/10 08:06:19;;;;;;;14.93;11.60;;;2.10;99.90;;;;;;5044992;28;20142;-47
2023/03/10 08:08:44;;;;;;;17.13;12.05;;;2.10;99.90;;;;;;5044556;28;20116;-47
2023/03/10 08:11:10;;;;;;;18.23;12.13;;;2.10;99.90;;;;;;5044648;28;20065;-47
2023/03/10 08:13:38;;;;;;;15.97;12.53;;;2.10;99.90;;;;;;5041875;28;20058;-46
2023/03/10 08:16:04;;;;;;;15.90;11.15;;;2.10;99.90;;;;;;5037321;28;20318;-49
2023/03/10 08:18:31;;;;;;;16.15;12.15;;;2.10;99.90;;;;;;5037173;28;20048;-46
2023/03/10 08:20:57;;;;;;;17.80;11.82;;;2.10;99.90;;;;;;5036578;28;20037;-46
2023/03/10 08:23:23;;;;;;;;;;;2.10;99.90;;;;;;5037125;28;20044;-47
2023/03/10 08:25:49;;;;;;;16.38;11.50;;;2.10;99.90;;;;;;5038932;28;19937;-48
2023/03/10 08:28:15;;;;;;;19.43;13.10;;;2.10;99.90;;;;;;5035610;28;20127;-49
2023/03/10 08:30:41;;;;;;;19.50;13.57;;;2.20;99.90;;;;;;5037126;28;20146;-47
2023/03/10 08:33:07;;;;;;;18.77;13.60;;;2.20;99.90;;;;;;5033407;28;20068;-47
2023/03/10 08:35:34;;;;;;;20.42;14.38;;;2.20;99.90;;;;;;5033674;28;20052;-47
2023/03/10 08:37:59;;;;;;;16.27;12.52;;;2.20;99.90;;;;;;5033608;28;20099;-48
2023/03/10 08:40:25;;;;;;;23.47;14.47;;;2.30;99.90;;;;;;5032353;28;20033;-47
2023/03/10 08:42:51;;;;;;;20.73;14.03;;;2.30;99.90;;;;;;5037195;28;20548;-47
2023/03/10 08:45:18;;;;;;;20.00;15.30;;;2.30;99.90;;;;;;5042552;28;20029;-47
2023/03/10 08:47:43;;;;;;;24.70;14.70;;;2.30;99.90;;;;;;5038827;28;20482;-47
2023/03/10 08:50:11;;;;;;;23.45;16.50;;;2.30;99.90;;;;;;5044772;28;20083;-47
2023/03/10 08:52:37;;;;;;;21.95;14.27;;;2.30;99.90;;;;;;5045206;28;20115;-47
2023/03/10 08:55:04;;;;;;;20.52;14.68;;;2.40;99.90;;;;;;5042471;28;20124;-48
2023/03/10 08:57:30;;;;;;;21.65;15.30;;;2.40;99.90;;;;;;5041386;28;20063;-47
2023/03/10 08:59:55;;;;;;;22.80;15.27;;;2.40;99.90;;;;;;5045146;28;20036;-48
2023/03/10 09:02:21;;;;;;;22.10;15.73;;;2.40;99.90;;;;;;5047388;28;20064;-47
2023/03/10 09:04:47;;;;;;;21.40;14.47;;;2.40;99.90;;;;;;5043753;28;20098;-49
2023/03/10 09:07:13;;;;;;;23.73;14.25;;;2.30;99.90;;;;;;5042764;28;20053;-48
2023/03/10 09:09:39;;;;;;;22.47;15.00;;;2.30;99.90;;;;;;5043658;28;20043;-49
2023/03/10 09:12:07;;;;;;;18.83;14.47;;;2.30;99.90;;;;;;5041289;28;20037;-47
2023/03/10 09:14:33;;;;;;;20.13;14.35;;;2.30;99.90;;;;;;5037654;28;20090;-48
2023/03/10 09:16:58;;;;;;;21.80;15.90;;;2.30;99.90;;;;;;5041471;28;20616;-48
2023/03/10 09:19:24;;;;;;;22.53;15.07;;;2.40;99.90;;;;;;5041103;28;20082;-48
2023/03/10 09:21:50;;;;;;;22.53;15.63;;;2.40;99.90;;;;;;5039132;28;20435;-48
2023/03/10 09:24:16;;;;;;;20.37;15.10;;;2.40;99.90;;;;;;5042728;28;20750;-50
2023/03/10 09:26:42;;;;;;;18.05;12.65;;;2.40;99.90;;;;;;5040400;28;20037;-48
2023/03/10 09:29:08;;;;;;;18.67;13.47;;;2.40;99.90;;;;;;5039162;28;20040;-50
2023/03/10 09:31:36;;;;;;;23.47;15.70;;;2.50;99.90;;;;;;5040953;28;20080;-48
2023/03/10 09:34:03;;;;;;;19.02;14.15;;;2.50;99.90;;;;;;5047066;28;20029;-48
2023/03/10 09:36:28;;;;;;;22.45;17.00;;;2.60;99.90;;;;;;5037312;28;20037;-48
2023/03/10 09:38:56;;;;;;;19.30;14.97;;;2.60;99.90;;;;;;5039460;28;20095;-48
2023/03/10 09:42:00;;;;;;;20.10;14.93;;;2.60;99.90;;;;;;5035241;28;20049;-48
2023/03/10 09:44:42;;;;;;;20.27;14.75;;;2.60;99.90;;;;;;5012187;28;20074;-48
2023/03/10 09:47:22;;;;;;;23.00;16.80;;;2.60;99.90;;;;;;5040283;28;20513;-48
2023/03/10 09:50:06;;;;;;;20.15;15.48;;;2.60;99.90;;;;;;5044337;28;20389;-47
2023/03/10 09:52:38;;;;;;;20.00;15.75;;;2.50;99.90;;;;;;5042457;28;20064;-49
2023/03/10 09:55:29;;;;;;;19.88;15.10;;;2.50;99.90;;;;;;5042424;28;20172;-47
2023/03/10 09:57:56;;;;;;;21.50;15.00;;;2.50;99.90;;;;;;5045751;28;20288;-47
2023/03/10 10:00:33;;;;;;;;;;;2.50;99.90;;;;;;5046736;28;20037;-47
2023/03/10 10:03:23;;;;;;;22.40;14.93;;;2.50;99.90;;;;;;5035142;28;20398;-47
2023/03/10 10:05:52;;;;;;;22.08;15.00;;;2.50;99.90;;;;;;5032721;28;20071;-47
2023/03/10 10:08:26;;;;;;;22.83;15.18;;;2.50;99.90;;;;;;5046073;28;20037;-49
2023/03/10 10:10:57;;;;;;;22.80;16.58;;;2.50;99.90;;;;;;5040932;28;20059;-47
2023/03/10 10:13:26;;;;;;;19.30;14.68;;;2.50;99.90;;;;;;5034092;28;20737;-48
2023/03/10 10:16:21;;;;;;;21.65;16.63;;;2.50;99.90;;;;;;5045059;28;20038;-48
2023/03/10 10:18:56;;;;;;;20.45;14.35;;;2.40;99.90;;;;;;5043147;28;20045;-46
2023/03/10 10:21:46;;;;;;;21.38;15.80;;;2.40;99.90;;;;;;5042737;28;20506;-46
2023/03/10 10:24:12;;;;;;;19.38;14.18;;;2.50;99.90;;;;;;5046458;28;20040;-47
2023/03/10 10:26:38;;;;;;;21.77;15.25;;;2.50;99.90;;;;;;5038569;28;20540;-47
2023/03/10 10:29:25;;;;;;;23.13;16.63;;;2.50;99.90;;;;;;5036718;28;20275;-48
2023/03/10 10:32:10;;;;;;;21.15;14.57;;;2.50;99.90;;;;;;5044867;28;20064;-47
2023/03/10 10:34:41;;;;;;;21.38;15.55;;;2.50;99.90;;;;;;5041300;28;20042;-48
2023/03/10 10:37:29;;;;;;;20.30;15.65;;;2.50;99.90;;;;;;5042082;28;20037;-48
2023/03/10 10:39:57;;;;;;;22.75;15.45;;;2.40;99.90;;;;;;5047148;28;20063;-47
2023/03/10 10:42:31;;;;;;;20.20;14.35;;;2.40;99.90;;;;;;5042327;28;20049;-47
2023/03/10 10:45:06;;;;;;;24.05;17.15;;;2.40;99.90;;;;;;5041449;28;20041;-49
2023/03/10 10:47:44;;;;;;;22.00;15.70;;;2.40;99.90;;;;;;5031666;28;20392;-47
2023/03/10 10:50:21;;;;;;;22.88;16.60;;;2.40;99.90;;;;;;5045184;28;20069;-47
2023/03/10 10:52:51;;;;;;;23.23;16.45;;;2.50;99.90;;;;;;5039495;28;20041;-49
2023/03/10 10:55:30;;;;;;;23.25;15.70;;;2.50;99.90;;;;;;5048721;28;20449;-48
2023/03/10 10:57:58;;;;;;;24.40;17.95;;;2.50;99.90;;;;;;5045135;28;20095;-47
2023/03/10 11:00:28;;;;;;;22.27;16.25;;;2.50;99.90;;;;;;5038846;28;20069;-48
2023/03/10 11:02:54;;;;;;;26.30;17.17;;;2.50;99.90;;;;;;5042464;28;20037;-47
2023/03/10 11:05:31;;;;;;;23.13;16.30;;;2.50;99.90;;;;;;5046894;28;20044;-49
2023/03/10 11:08:15;;;;;;;23.13;16.00;;;2.50;99.90;;;;;;5034101;28;20045;-50
2023/03/10 11:10:41;;;;;;;23.02;15.32;;;2.50;99.90;;;;;;5031269;28;20034;-49
2023/03/10 11:13:19;;;;;;;22.02;16.17;;;2.50;99.90;;;;;;5048054;28;20049;-46
2023/03/10 11:16:13;;;;;;;24.05;16.50;;;2.50;99.90;;;;;;5033279;28;20048;-48
2023/03/10 11:18:57;;;;;;;21.23;15.60;;;2.50;99.90;;;;;;5049127;28;20533;-48
2023/03/10 11:21:27;;;;;;;22.25;15.65;;;2.50;99.90;;;;;;5051226;28;20040;-47
2023/03/10 11:24:14;;;;;;;21.88;15.52;;;2.50;99.90;;;;;;5044767;28;20494;-48
2023/03/10 11:27:03;;;;;;;22.30;14.77;;;2.60;99.90;;;;;;5031210;28;20033;-47
2023/03/10 11:30:17;;;;;;;21.08;15.77;;;2.60;99.90;;;;;;5029277;28;20068;-47
2023/03/10 11:33:13;;;;;;;22.73;15.25;;;2.60;99.90;;;;;;5004034;28;20056;-46
2023/03/10 11:35:44;;;;;;;20.92;15.43;;;2.60;99.90;;;;;;5030419;28;20073;-47
2023/03/10 11:38:38;;;;;;;25.25;16.77;;;2.60;99.90;;;;;;5029022;28;20033;-47
2023/03/10 11:41:11;;;;;;;19.02;13.38;;;2.60;99.90;;;;;;5030193;28;20116;-46
2023/03/10 11:43:58;;;;;;;21.27;15.15;;;2.60;99.90;;;;;;5029770;28;20038;-47
2023/03/10 11:46:32;;;;;;;19.50;14.07;;;2.70;99.90;;;;;;5030431;28;20072;-47
2023/03/10 11:49:11;;;;;;;23.10;15.90;;;2.60;99.90;;;;;;5028942;28;20429;-46
2023/03/10 11:51:45;;;;;;;23.92;14.90;;;2.70;99.90;;;;;;5030404;28;20048;-49
2023/03/10 11:54:19;;;;;;;24.13;15.90;;;2.60;99.90;;;;;;5029410;28;20044;-47
2023/03/10 11:56:47;;;;;;;21.50;15.75;;;2.70;99.90;;;;;;5030352;28;20419;-46
2023/03/10 11:59:28;;;;;;;19.10;14.43;;;2.70;99.90;;;;;;5028930;28;20041;-49
2023/03/10 12:01:57;;;;;;;19.55;13.77;;;2.70;99.90;;;;;;5048157;28;20044;-47
2023/03/10 12:04:36;;;;;;;20.40;14.57;;;2.70;99.90;;;;;;5049589;28;20036;-47
2023/03/10 12:07:02;;;;;;;19.45;14.80;;;2.70;99.90;;;;;;5049513;28;20049;-46
2023/03/10 12:09:45;;;;;;;19.58;14.40;;;2.70;99.90;;;;;;5033556;28;20048;-48
2023/03/10 12:12:25;;;;;;;18.58;14.25;;;2.70;99.90;;;;;;5044461;28;20037;-48
2023/03/10 12:14:52;;;;;;;18.33;13.80;;;2.70;99.90;;;;;;5029441;28;20557;-48
2023/03/10 12:17:18;;;;;;;20.77;15.15;;;2.70;99.90;;;;;;5040796;28;20206;-47
2023/03/10 12:20:11;;;;;;;19.90;14.98;;;2.70;99.90;;;;;;5048844;28;20533;-47
2023/03/10 12:22:45;;;;;;;21.38;14.18;;;2.70;99.90;;;;;;5049683;28;20037;-48
2023/03/10 12:25:31;;;;;;;19.17;13.70;;;2.70;99.90;;;;;;5049531;28;20033;-47
2023/03/10 12:28:15;;;;;;;18.98;13.20;;;2.70;99.90;;;;;;5048480;28;20168;-47
2023/03/10 12:30:59;;;;;;;18.55;13.27;;;2.70;99.90;;;;;;5029484;28;20521;-47
2023/03/10 12:33:32;;;;;;;18.13;12.82;;;2.70;99.90;;;;;;5029369;28;20048;-49
2023/03/10 12:36:14;;;;;;;19.65;14.50;;;2.70;99.90;;;;;;5048146;28;20513;-47
2023/03/10 12:38:57;;;;;;;18.70;13.90;;;2.70;99.90;;;;;;5046640;28;20045;-48
2023/03/10 12:41:26;;;;;;;18.00;13.52;;;2.70;99.90;;;;;;5049576;28;20045;-49
2023/03/10 12:43:54;;;;;;;18.75;13.75;;;2.70;99.90;;;;;;5049304;28;20121;-46
2023/03/10 12:46:46;;;;;;;19.60;13.65;;;2.70;99.90;;;;;;5040392;28;20561;-47
2023/03/10 12:49:23;;;;;;;27.13;13.75;;;2.60;99.90;;;;;;5028495;28;20041;-48
2023/03/10 12:51:57;;;;;;;18.85;14.02;;;2.60;99.90;;;;;;5029451;28;20037;-47